Time;durP1;ratioP1;P1;durP2;ratioP2;P2;SDS_P1;SDS_P2;PMS_P1;PMS_P2;Temp;Humidity;BMP_temperature;BMP_pressure;BME280_temperature;BME280_humidity;BME280_pressure;Samples;Min_cycle;Max_cycle;Signal;HPM_P1;HPM_P2
2021/09/26 00:00:45;;;;;;;8.73;5.90;;;14.60;99.90;;;15.65;100.00;98116.47;5095085;28;20463;-81
2021/09/26 00:03:14;;;;;;;8.97;6.20;;;14.50;99.90;;;15.70;100.00;98121.09;5105709;28;20458;-82
2021/09/26 00:05:44;;;;;;;8.67;5.93;;;14.60;99.90;;;15.71;100.00;98112.97;5097845;28;21030;-82
2021/09/26 00:08:14;;;;;;;8.43;5.47;;;14.70;99.90;;;15.73;100.00;98110.09;5092877;28;20548;-82
2021/09/26 00:10:43;;;;;;;7.73;5.73;;;14.70;99.90;;;15.73;100.00;98115.38;5105208;28;20466;-82
2021/09/26 00:13:11;;;;;;;8.80;5.17;;;14.70;99.90;;;15.71;100.00;98105.06;5103224;28;20452;-82
2021/09/26 00:15:40;;;;;;;8.70;5.10;;;14.70;99.90;;;15.65;100.00;98113.03;5101637;28;20465;-81
2021/09/26 00:18:09;;;;;;;14.83;6.03;;;14.60;99.90;;;15.57;100.00;98114.94;5106044;28;20971;-82
2021/09/26 00:20:37;;;;;;;6.13;5.53;;;14.40;99.90;;;15.59;100.00;98115.50;5106217;28;20535;-82
2021/09/26 00:23:06;;;;;;;9.50;6.30;;;14.60;99.90;;;15.58;100.00;98105.19;5099038;28;20516;-82
2021/09/26 00:25:36;;;;;;;8.43;6.23;;;14.50;99.90;;;15.55;100.00;98106.41;5104784;28;20458;-82
2021/09/26 00:28:06;;;;;;;8.90;5.77;;;14.50;99.90;;;15.47;100.00;98106.69;5103530;28;20490;-82
2021/09/26 00:30:35;;;;;;;15.87;6.13;;;14.40;99.90;;;15.46;100.00;98107.69;5104051;27;20454;-82
2021/09/26 00:33:03;;;;;;;7.90;5.63;;;14.40;99.90;;;15.41;100.00;98102.25;5104948;28;20458;-82
2021/09/26 00:35:32;;;;;;;6.17;5.10;;;14.30;99.90;;;15.42;100.00;98106.50;5101213;28;20460;-82
2021/09/26 00:38:01;;;;;;;7.60;5.93;;;14.30;99.90;;;15.39;100.00;98108.75;5105440;28;20927;-82
2021/09/26 00:40:29;;;;;;;7.90;6.53;;;14.30;99.90;;;15.38;100.00;98109.78;5101211;28;20767;-82
2021/09/26 00:42:59;;;;;;;9.50;6.40;;;14.30;99.90;;;15.34;100.00;98100.72;5104202;28;20482;-82
2021/09/26 00:45:28;;;;;;;8.83;5.77;;;14.20;99.90;;;15.34;100.00;98106.75;5105783;28;20462;-82
2021/09/26 00:47:56;;;;;;;8.43;6.03;;;14.30;99.90;;;15.36;100.00;98102.09;5105467;28;20494;-82
2021/09/26 00:50:25;;;;;;;9.27;5.93;;;14.40;99.90;;;15.39;100.00;98106.94;5097482;28;20513;-81
2021/09/26 00:52:54;;;;;;;12.53;6.27;;;14.40;99.90;;;15.39;100.00;98108.75;5103773;28;20910;-81
2021/09/26 00:55:22;;;;;;;8.80;5.67;;;14.40;99.90;;;15.30;100.00;98108.25;5100870;28;20490;-82
2021/09/26 00:57:51;;;;;;;7.13;5.87;;;14.30;99.90;;;15.31;100.00;98101.94;5100202;28;20482;-82
2021/09/26 01:00:22;;;;;;;9.93;6.67;;;14.30;99.90;;;15.28;100.00;98102.38;5102415;28;20459;-82
2021/09/26 01:02:50;;;;;;;7.77;6.67;;;14.20;99.90;;;15.26;100.00;98103.59;5102000;28;20845;-82
2021/09/26 01:05:22;;;;;;;10.50;6.53;;;14.20;99.90;;;15.26;100.00;98109.69;5102224;28;20475;-82
2021/09/26 01:08:06;;;;;;;8.70;5.97;;;14.20;99.90;;;15.25;100.00;98113.34;5107584;28;20843;-82
2021/09/26 01:10:47;;;;;;;10.80;5.90;;;14.20;99.90;;;15.25;100.00;98115.97;5098547;28;20466;-82
2021/09/26 01:13:38;;;;;;;9.23;6.30;;;14.30;99.90;;;15.28;100.00;98114.72;5097552;28;20455;-82
2021/09/26 01:16:25;;;;;;;9.33;6.30;;;14.30;99.90;;;15.30;100.00;98110.06;5102149;28;20953;-82
2021/09/26 01:19:14;;;;;;;7.80;5.30;;;14.30;99.90;;;15.32;100.00;98114.09;5104342;28;20462;-82
2021/09/26 01:21:52;;;;;;;9.90;5.17;;;14.30;99.90;;;15.31;100.00;98112.47;5098793;28;20486;-82
2021/09/26 01:25:03;;;;;;;12.87;6.70;;;14.30;99.90;;;15.32;100.00;98108.81;5095737;28;20516;-82
2021/09/26 01:27:59;;;;;;;8.70;6.33;;;14.30;99.90;;;15.35;100.00;98108.38;5082606;28;20525;-82
2021/09/26 01:30:48;;;;;;;7.50;5.90;;;14.40;99.90;;;15.34;100.00;98112.03;5096813;28;20819;-82
2021/09/26 01:33:23;;;;;;;8.87;6.30;;;14.40;99.90;;;15.31;100.00;98116.94;5108808;27;20490;-82
2021/09/26 01:36:05;;;;;;;8.03;5.20;;;14.40;99.90;;;15.29;100.00;98122.44;5097820;28;20947;-81
2021/09/26 01:38:41;;;;;;;9.53;5.27;;;14.40;99.90;;;15.27;100.00;98121.03;5101654;28;20462;-82
2021/09/26 01:41:19;;;;;;;5.20;4.70;;;14.30;99.90;;;15.24;100.00;98116.19;5099938;28;20470;-82
2021/09/26 01:43:51;;;;;;;7.50;5.57;;;14.20;99.90;;;15.24;100.00;98111.72;5100928;28;20524;-82
2021/09/26 01:46:32;;;;;;;8.73;5.37;;;14.30;99.90;;;15.19;100.00;98118.66;5105009;28;20455;-82
2021/09/26 01:49:06;;;;;;;9.33;6.50;;;14.10;99.90;;;15.15;100.00;98120.09;5108785;28;20581;-82
2021/09/26 01:51:38;;;;;;;8.30;5.90;;;14.10;99.90;;;15.07;100.00;98113.25;5109544;28;20866;-82
2021/09/26 01:54:16;;;;;;;11.37;5.67;;;13.90;99.90;;;15.05;100.00;98120.59;5100994;28;20455;-82
2021/09/26 01:56:46;;;;;;;7.63;5.87;;;14.00;99.90;;;15.03;100.00;98115.50;5104821;28;20550;-82
2021/09/26 01:59:18;;;;;;;8.00;5.57;;;14.00;99.90;;;15.01;100.00;98107.03;5102500;28;20985;-82
2021/09/26 02:01:49;;;;;;;8.30;5.80;;;14.00;99.90;;;14.94;100.00;98118.63;5105930;28;20459;-82
2021/09/26 02:04:21;;;;;;;7.60;5.67;;;13.80;99.90;;;14.85;100.00;98117.28;5077078;28;20494;-82
2021/09/26 02:06:51;;;;;;;7.67;4.93;;;13.70;99.90;;;14.90;100.00;98112.16;5102299;28;20879;-82
2021/09/26 02:09:20;;;;;;;7.70;5.60;;;13.90;99.90;;;14.87;100.00;98108.16;5098208;28;20995;-82
2021/09/26 02:11:50;;;;;;;7.87;5.67;;;13.90;99.90;;;14.80;100.00;98114.47;5102450;28;20519;-82
2021/09/26 02:14:20;;;;;;;6.83;5.70;;;13.70;99.90;;;14.77;100.00;98114.88;5103452;28;20547;-82
2021/09/26 02:16:51;;;;;;;7.10;5.57;;;13.70;99.90;;;14.73;100.00;98111.88;5105220;28;20523;-82
2021/09/26 02:19:22;;;;;;;8.73;5.73;;;13.60;99.90;;;14.80;100.00;98119.72;5102713;28;20521;-82
2021/09/26 02:21:52;;;;;;;8.93;6.13;;;13.70;99.90;;;14.81;100.00;98121.34;5094578;28;20569;-82
2021/09/26 02:24:21;;;;;;;6.47;5.40;;;13.70;99.90;;;14.65;100.00;98117.38;5095522;28;21950;-82
2021/09/26 02:26:51;;;;;;;8.60;5.63;;;13.50;99.90;;;14.68;100.00;98121.44;5096749;28;20820;-82
2021/09/26 02:29:20;;;;;;;7.03;5.70;;;13.60;99.90;;;14.72;100.00;98119.97;5094768;28;20517;-81
2021/09/26 02:31:50;;;;;;;10.60;5.50;;;13.70;99.90;;;14.69;100.00;98123.03;5099135;28;20540;-82
2021/09/26 02:34:19;;;;;;;8.50;5.87;;;13.60;99.90;;;14.65;100.00;98113.97;5099684;28;20447;-82
2021/09/26 02:36:48;;;;;;;7.50;6.07;;;13.60;99.90;;;14.64;100.00;98114.97;5103888;28;20504;-82
2021/09/26 02:39:19;;;;;;;6.93;5.70;;;13.60;99.90;;;14.66;100.00;98118.19;5104920;28;20455;-82
2021/09/26 02:42:00;;;;;;;10.73;5.83;;;13.70;99.90;;;14.67;100.00;98117.19;5107793;28;20763;-82
2021/09/26 02:44:38;;;;;;;9.20;6.60;;;13.70;99.90;;;14.68;100.00;98116.16;5106018;28;20490;-82
2021/09/26 02:47:15;;;;;;;8.60;5.73;;;13.70;99.90;;;14.61;100.00;98106.47;5102614;28;20461;-82
2021/09/26 02:49:45;;;;;;;9.50;5.63;;;13.60;99.90;;;14.50;100.00;98099.25;5098856;28;20558;-82
2021/09/26 02:52:15;;;;;;;10.57;5.43;;;13.50;99.90;;;14.56;100.00;98101.03;5099220;28;20462;-81
2021/09/26 02:54:45;;;;;;;8.80;6.03;;;13.50;99.90;;;14.52;100.00;98110.38;5102267;28;20543;-82
2021/09/26 02:57:14;;;;;;;8.70;6.43;;;13.40;99.90;;;14.49;100.00;98102.91;5103087;28;20474;-82
2021/09/26 02:59:44;;;;;;;6.90;5.37;;;13.40;99.90;;;14.44;100.00;98099.25;5107738;28;20483;-82
2021/09/26 03:02:14;;;;;;;8.17;5.10;;;13.40;99.90;;;14.42;100.00;98088.16;5102847;28;20493;-82
2021/09/26 03:04:45;;;;;;;6.10;5.27;;;13.40;99.90;;;14.39;100.00;98097.28;5104731;28;20466;-82
2021/09/26 03:07:15;;;;;;;8.43;5.73;;;13.40;99.90;;;14.32;100.00;98099.09;5078659;28;20461;-82
2021/09/26 03:09:44;;;;;;;8.90;5.00;;;13.30;99.90;;;14.29;100.00;98099.53;5109327;28;20559;-82
2021/09/26 03:12:15;;;;;;;6.73;5.33;;;13.20;99.90;;;14.27;100.00;98101.53;5103573;28;20528;-82
2021/09/26 03:14:45;;;;;;;8.17;5.47;;;13.20;99.90;;;14.25;100.00;98093.06;5103176;28;20459;-82
2021/09/26 03:17:16;;;;;;;9.07;6.37;;;13.20;99.90;;;14.24;100.00;98096.69;5101807;28;20458;-82
2021/09/26 03:19:45;;;;;;;7.73;5.80;;;13.20;99.90;;;14.20;100.00;98097.31;5083299;28;20483;-81
2021/09/26 03:22:14;;;;;;;9.13;5.40;;;13.20;99.90;;;14.22;100.00;98100.56;5100554;28;20978;-82
2021/09/26 03:24:43;;;;;;;13.10;5.47;;;13.20;99.90;;;14.19;100.00;98101.78;5105684;28;20463;-81
2021/09/26 03:27:13;;;;;;;6.40;5.73;;;13.10;99.90;;;14.21;100.00;98093.69;5103313;28;20491;-82
2021/09/26 03:29:43;;;;;;;6.90;5.43;;;13.10;99.90;;;14.24;100.00;98098.53;5109565;28;20489;-82
2021/09/26 03:32:14;;;;;;;7.00;5.43;;;13.20;99.90;;;14.18;100.00;98099.38;5102934;28;20503;-81
2021/09/26 03:34:42;;;;;;;9.20;6.57;;;13.10;99.90;;;14.12;100.00;98095.75;5104175;28;20462;-82
2021/09/26 03:37:11;;;;;;;6.90;5.50;;;13.10;99.90;;;14.05;100.00;98094.97;5102474;28;20737;-81
2021/09/26 03:39:41;;;;;;;12.27;5.37;;;13.00;99.90;;;13.95;100.00;98100.63;5100545;28;20471;-82
2021/09/26 03:42:09;;;;;;;10.17;5.30;;;12.90;99.90;;;13.94;100.00;98096.41;5099755;28;20901;-81
2021/09/26 03:44:38;;;;;;;6.13;4.77;;;12.90;99.90;;;13.95;100.00;98090.13;5107325;28;20459;-82
2021/09/26 03:47:07;;;;;;;8.00;5.17;;;12.90;99.90;;;13.91;100.00;98093.41;5101530;28;20523;-82
2021/09/26 03:49:37;;;;;;;8.60;5.23;;;12.80;99.90;;;13.91;100.00;98090.75;5104950;28;20479;-82
2021/09/26 03:52:07;;;;;;;6.03;5.40;;;12.90;99.90;;;13.92;100.00;98090.53;5103953;28;20451;-82
2021/09/26 03:54:36;;;;;;;7.97;5.50;;;12.90;99.90;;;13.97;100.00;98089.94;5099937;28;20512;-82
2021/09/26 03:57:06;;;;;;;9.80;5.27;;;12.90;99.90;;;13.97;100.00;98092.56;5108327;28;20486;-81
2021/09/26 03:59:35;;;;;;;6.33;4.83;;;13.00;99.90;;;13.95;100.00;98084.88;5101127;28;20967;-82
2021/09/26 04:02:04;;;;;;;10.90;6.30;;;13.00;99.90;;;13.94;100.00;98093.78;5098954;28;20852;-82
2021/09/26 04:04:33;;;;;;;7.83;5.70;;;12.90;99.90;;;13.82;100.00;98091.97;5104847;28;20537;-81
2021/09/26 04:07:04;;;;;;;10.50;5.23;;;12.70;99.90;;;13.80;100.00;98091.41;5102671;28;20462;-82
2021/09/26 04:09:33;;;;;;;8.10;5.83;;;12.70;99.90;;;13.80;100.00;98092.22;5110102;27;20530;-82
2021/09/26 04:12:02;;;;;;;6.80;5.40;;;12.70;99.90;;;13.73;100.00;98088.78;5102665;28;20495;-82
2021/09/26 04:14:30;;;;;;;8.13;5.40;;;12.70;99.90;;;13.64;100.00;98083.97;5107374;28;20960;-82
2021/09/26 04:16:59;;;;;;;7.27;5.43;;;12.60;99.90;;;13.69;100.00;98079.69;5100191;28;20458;-83
2021/09/26 04:19:27;;;;;;;6.17;4.77;;;12.60;99.90;;;13.66;100.00;98087.19;5104655;28;20551;-82
2021/09/26 04:21:56;;;;;;;6.70;5.43;;;12.50;99.90;;;13.56;100.00;98085.78;5107329;28;20966;-82
2021/09/26 04:24:26;;;;;;;9.27;5.30;;;12.40;99.90;;;13.58;100.00;98086.38;5108648;28;20439;-82
2021/09/26 04:26:55;;;;;;;8.50;5.50;;;12.40;99.90;;;13.61;100.00;98083.34;5105024;28;20539;-82
2021/09/26 04:29:24;;;;;;;7.63;5.77;;;12.50;99.90;;;13.63;100.00;98084.97;5103248;28;20497;-82
2021/09/26 04:31:53;;;;;;;6.37;5.30;;;12.50;99.90;;;13.65;100.00;98082.94;5099362;28;20469;-82
2021/09/26 04:34:26;;;;;;;8.53;4.77;;;12.60;99.90;;;13.60;100.00;98083.56;5095230;28;20470;-82
2021/09/26 04:36:54;;;;;;;7.40;5.30;;;12.50;99.90;;;13.60;100.00;98076.50;5100708;28;20594;-81
2021/09/26 04:39:25;;;;;;;10.67;5.17;;;12.50;99.90;;;13.61;100.00;98088.59;5107206;28;20454;-81
2021/09/26 04:41:54;;;;;;;8.23;6.20;;;12.60;99.90;;;13.60;100.00;98087.00;5098933;28;20501;-81
2021/09/26 04:44:22;;;;;;;7.77;4.83;;;12.50;99.90;;;13.58;100.00;98089.00;5100326;28;20864;-81
2021/09/26 04:46:51;;;;;;;7.33;5.60;;;12.50;99.90;;;13.44;100.00;98090.03;5104262;28;20929;-82
2021/09/26 04:49:20;;;;;;;7.13;5.10;;;12.40;99.90;;;13.31;100.00;98095.31;5108685;27;20478;-81
2021/09/26 04:51:48;;;;;;;7.20;5.40;;;12.20;99.90;;;13.35;100.00;98096.53;5096473;28;20567;-82
2021/09/26 04:54:17;;;;;;;8.17;5.27;;;12.30;99.90;;;13.32;100.00;98090.88;5098930;28;21110;-82
2021/09/26 04:56:47;;;;;;;7.30;5.40;;;12.20;99.90;;;13.27;100.00;98093.28;5104040;28;20571;-82
2021/09/26 04:59:17;;;;;;;7.57;5.20;;;12.20;99.90;;;13.19;100.00;98083.78;5097072;28;20450;-82
2021/09/26 05:01:46;;;;;;;4.93;4.43;;;12.10;99.90;;;13.15;100.00;98087.03;5093363;28;20459;-82
2021/09/26 05:04:16;;;;;;;6.50;4.87;;;12.10;99.90;;;13.16;100.00;98086.81;5099891;28;20459;-82
2021/09/26 05:06:44;;;;;;;5.73;5.07;;;12.10;99.90;;;13.16;100.00;98092.06;5098632;28;20526;-82
2021/09/26 05:09:13;;;;;;;6.93;5.30;;;12.10;99.90;;;13.20;100.00;98103.78;5092928;28;20471;-81
2021/09/26 05:11:41;;;;;;;10.40;5.60;;;12.10;99.90;;;13.23;100.00;98094.69;5091383;28;20564;-81
2021/09/26 05:14:11;;;;;;;8.13;5.60;;;12.20;99.90;;;13.22;100.00;98091.28;5109252;28;20462;-82
2021/09/26 05:16:40;;;;;;;8.90;5.33;;;12.20;99.90;;;13.21;100.00;98097.53;5097777;28;20487;-82
2021/09/26 05:19:09;;;;;;;8.07;4.90;;;12.20;99.90;;;13.25;100.00;98090.88;5098854;28;20554;-82
2021/09/26 05:21:38;;;;;;;7.57;4.97;;;12.30;99.90;;;13.27;100.00;98088.03;5098556;28;20528;-82
2021/09/26 05:24:07;;;;;;;8.33;5.30;;;12.30;99.90;;;13.23;100.00;98090.25;5095327;28;20455;-81
2021/09/26 05:26:35;;;;;;;6.70;5.33;;;12.20;99.90;;;13.21;100.00;98094.91;5103766;28;21102;-82
2021/09/26 05:29:06;;;;;;;8.60;5.83;;;12.10;99.90;;;13.22;100.00;98096.53;5106190;28;20493;-82
2021/09/26 05:31:38;;;;;;;8.57;5.20;;;12.10;99.90;;;13.22;100.00;98104.41;5093629;28;20759;-82
2021/09/26 05:34:07;;;;;;;7.97;5.20;;;12.20;99.90;;;13.13;100.00;98113.47;5103783;28;20458;-82
2021/09/26 05:36:36;;;;;;;12.07;5.90;;;12.10;99.90;;;13.08;100.00;98108.00;5105183;28;20455;-81
2021/09/26 05:39:05;;;;;;;8.10;5.00;;;12.00;99.90;;;13.13;100.00;98116.09;5100491;28;20467;-81
2021/09/26 05:41:34;;;;;;;6.83;5.47;;;12.10;99.90;;;13.17;100.00;98127.81;5096394;28;20536;-81
2021/09/26 05:44:02;;;;;;;10.80;5.67;;;12.10;99.90;;;13.09;100.00;98141.13;5097752;28;20466;-81
2021/09/26 05:46:31;;;;;;;7.57;5.23;;;12.10;99.90;;;13.04;100.00;98154.03;5098538;28;20547;-82
2021/09/26 05:49:01;;;;;;;9.23;5.33;;;12.00;99.90;;;13.05;100.00;98155.66;5105070;28;20462;-81
2021/09/26 05:51:30;;;;;;;11.30;5.50;;;12.10;99.90;;;13.06;100.00;98146.75;5092855;28;20596;-81
2021/09/26 05:53:58;;;;;;;11.63;5.70;;;12.20;99.90;;;13.11;100.00;98149.66;5104961;28;21029;-81
2021/09/26 05:56:27;;;;;;;6.60;5.00;;;12.20;99.90;;;13.10;100.00;98148.03;5100771;28;20540;-81
2021/09/26 05:58:56;;;;;;;6.00;4.93;;;12.10;99.90;;;13.08;100.00;98144.75;5090738;28;21040;-82
2021/09/26 06:01:25;;;;;;;7.17;5.73;;;12.10;99.90;;;13.13;100.00;98137.09;5096250;28;21068;-82
2021/09/26 06:03:54;;;;;;;7.57;5.33;;;12.20;99.90;;;13.18;100.00;98134.72;5098774;28;20458;-81
2021/09/26 06:06:24;;;;;;;8.17;4.83;;;12.20;99.90;;;13.18;100.00;98131.28;5093366;28;20532;-82
2021/09/26 06:08:52;;;;;;;11.20;5.70;;;12.20;99.90;;;13.12;100.00;98130.22;5100666;28;20469;-82
2021/09/26 06:11:21;;;;;;;8.17;5.20;;;12.10;99.90;;;13.07;100.00;98127.38;5099147;28;20494;-82
2021/09/26 06:13:50;;;;;;;8.97;6.00;;;12.10;99.90;;;13.06;100.00;98146.75;5088928;28;20478;-82
2021/09/26 06:16:19;;;;;;;7.67;4.67;;;12.10;99.90;;;12.99;100.00;98153.81;5101092;28;20473;-86
2021/09/26 06:18:47;;;;;;;7.90;5.47;;;12.00;99.90;;;13.07;100.00;98158.91;5095107;28;20515;-82
2021/09/26 06:21:16;;;;;;;7.53;5.23;;;12.10;99.90;;;13.13;100.00;98165.19;5096375;28;20463;-82
2021/09/26 06:23:46;;;;;;;7.70;6.20;;;12.20;99.90;;;13.17;100.00;98161.97;5096170;28;21048;-82
2021/09/26 06:26:15;;;;;;;9.63;6.00;;;12.20;99.90;;;13.16;100.00;98162.97;5106230;28;20466;-82
2021/09/26 06:28:44;;;;;;;8.63;5.13;;;12.20;99.90;;;13.18;100.00;98163.59;5098455;28;20978;-82
2021/09/26 06:31:13;;;;;;;12.93;5.10;;;12.20;99.90;;;13.24;100.00;98162.78;5094844;28;20522;-81
2021/09/26 06:33:42;;;;;;;7.97;5.10;;;12.20;99.90;;;13.26;100.00;98162.59;5095219;28;21036;-82
2021/09/26 06:36:10;;;;;;;10.77;4.60;;;12.30;99.90;;;13.26;100.00;98160.75;5100552;28;20454;-82
2021/09/26 06:38:39;;;;;;;8.70;6.50;;;12.30;99.90;;;13.30;100.00;98154.09;5101842;28;20511;-81
2021/09/26 06:41:11;;;;;;;10.93;7.40;;;12.30;99.90;;;13.32;100.00;98162.59;5102246;28;20467;-82
2021/09/26 06:43:40;;;;;;;10.77;6.83;;;12.40;99.90;;;13.37;100.00;98164.59;5104788;28;20455;-83
2021/09/26 06:46:09;;;;;;;9.43;5.57;;;12.40;99.90;;;13.38;100.00;98155.72;5104954;28;20440;-82
2021/09/26 06:48:37;;;;;;;15.20;5.77;;;12.40;99.90;;;13.37;100.00;98161.97;5077400;28;20446;-82
2021/09/26 06:51:06;;;;;;;6.57;4.60;;;12.50;99.90;;;13.36;100.00;98158.53;5102606;28;20514;-82
2021/09/26 06:53:35;;;;;;;6.43;5.17;;;12.50;99.90;;;13.38;100.00;98159.16;5108141;28;20492;-82
2021/09/26 06:56:03;;;;;;;6.23;4.73;;;12.50;99.90;;;13.44;100.00;98163.59;5099328;28;20455;-82
2021/09/26 06:58:33;;;;;;;6.40;5.07;;;12.50;99.90;;;13.47;100.00;98157.94;5106007;28;20542;-82
2021/09/26 07:01:02;;;;;;;8.17;5.90;;;12.50;99.90;;;13.48;100.00;98156.94;5108201;28;20443;-82
2021/09/26 07:03:31;;;;;;;7.87;5.40;;;12.60;99.90;;;13.48;100.00;98150.88;5107953;28;20525;-82
2021/09/26 07:05:59;;;;;;;9.60;5.13;;;12.70;99.90;;;13.49;100.00;98145.41;5097222;28;20451;-82
2021/09/26 07:08:28;;;;;;;8.50;5.70;;;12.60;99.90;;;13.52;100.00;98147.63;5096070;28;20500;-82
2021/09/26 07:10:57;;;;;;;20.23;6.50;;;12.60;99.90;;;13.56;100.00;98146.22;5104949;28;20482;-82
2021/09/26 07:13:25;;;;;;;6.60;5.53;;;12.60;99.90;;;13.58;100.00;98146.81;5099531;28;20482;-83
2021/09/26 07:15:55;;;;;;;7.33;5.40;;;12.60;99.90;;;13.59;100.00;98152.88;5110593;28;20442;-83
2021/09/26 07:18:24;;;;;;;8.03;5.90;;;12.70;99.90;;;13.64;100.00;98157.53;5110468;27;20933;-81
2021/09/26 07:20:52;;;;;;;8.07;5.23;;;12.70;99.90;;;13.68;100.00;98150.84;5101080;28;20441;-82
2021/09/26 07:23:21;;;;;;;7.40;5.80;;;12.80;99.90;;;13.73;100.00;98153.69;5099793;28;20951;-83
2021/09/26 07:25:49;;;;;;;8.13;5.80;;;12.80;99.90;;;13.76;100.00;98153.25;5096237;28;20474;-82
2021/09/26 07:28:18;;;;;;;10.73;7.00;;;12.90;99.90;;;13.79;100.00;98163.38;5105789;28;20454;-83
2021/09/26 07:30:47;;;;;;;9.57;6.10;;;12.90;99.90;;;13.82;100.00;98173.47;5097489;28;20470;-83
2021/09/26 07:33:24;;;;;;;9.57;6.47;;;12.90;99.90;;;13.88;100.00;98170.81;5106154;28;21084;-83
2021/09/26 07:35:53;;;;;;;7.90;5.80;;;12.90;99.90;;;13.96;100.00;98169.81;5102493;28;20435;-83
2021/09/26 07:38:21;;;;;;;7.77;5.63;;;13.00;99.90;;;14.02;100.00;98176.91;5110215;28;20476;-83
2021/09/26 07:40:50;;;;;;;6.90;5.40;;;13.10;99.90;;;14.09;100.00;98180.31;5110184;28;20742;-82
2021/09/26 07:43:19;;;;;;;8.67;6.00;;;13.20;99.90;;;14.14;100.00;98183.13;5109714;28;20507;-83
2021/09/26 07:45:57;;;;;;;8.83;5.67;;;13.30;99.90;;;14.21;100.00;98178.66;5104777;28;20531;-83
2021/09/26 07:48:27;;;;;;;7.13;5.23;;;13.30;99.90;;;14.28;100.00;98173.38;5101799;28;20505;-83
2021/09/26 07:50:56;;;;;;;12.30;6.10;;;13.40;99.90;;;14.34;100.00;98168.13;5107009;28;20443;-83
2021/09/26 07:53:26;;;;;;;8.00;6.23;;;13.50;99.90;;;14.39;100.00;98170.94;5093147;28;20887;-82
2021/09/26 07:55:55;;;;;;;8.00;5.90;;;13.50;99.90;;;14.46;100.00;98177.00;5102189;28;20439;-83
2021/09/26 07:58:25;;;;;;;10.13;5.30;;;13.60;99.90;;;14.53;100.00;98183.03;5107107;28;20522;-82
2021/09/26 08:00:56;;;;;;;9.27;5.73;;;13.70;99.90;;;14.60;100.00;98188.28;5098843;28;20463;-83
2021/09/26 08:03:27;;;;;;;9.97;6.17;;;13.70;99.90;;;14.66;100.00;98187.44;5094697;28;20853;-83
2021/09/26 08:05:56;;;;;;;8.63;6.10;;;13.80;99.90;;;14.74;100.00;98179.31;5103045;28;20466;-83
2021/09/26 08:08:25;;;;;;;11.13;6.10;;;13.90;99.90;;;14.81;100.00;98179.28;5100687;28;20818;-83
2021/09/26 08:10:53;;;;;;;11.60;5.90;;;14.00;99.90;;;14.86;100.00;98161.00;5098170;28;20854;-83
2021/09/26 08:13:22;;;;;;;7.10;5.40;;;14.00;99.90;;;14.92;100.00;98165.44;5093382;28;20551;-82
2021/09/26 08:15:50;;;;;;;12.50;6.07;;;14.10;99.90;;;14.98;100.00;98175.13;5096894;27;20464;-82
2021/09/26 08:18:19;;;;;;;8.80;5.53;;;14.10;99.90;;;15.02;100.00;98181.59;5095506;28;20458;-82
2021/09/26 08:20:49;;;;;;;9.10;5.37;;;14.20;99.90;;;15.07;100.00;98179.09;5109476;28;20438;-82
2021/09/26 08:23:17;;;;;;;8.10;6.00;;;14.30;99.90;;;15.13;100.00;98177.47;5102079;28;20474;-83
2021/09/26 08:25:47;;;;;;;72.40;39.57;;;14.30;99.90;;;15.17;100.00;98168.91;5098542;28;20867;-88
2021/09/26 08:28:15;;;;;;;126.97;71.43;;;14.40;99.90;;;15.24;100.00;98171.53;5097704;28;20455;-83
2021/09/26 08:30:44;;;;;;;9.23;6.73;;;14.50;99.90;;;15.29;100.00;98177.75;5098206;28;20459;-83
2021/09/26 08:33:13;;;;;;;10.30;6.40;;;14.50;99.90;;;15.34;100.00;98187.66;5105011;28;20490;-84
2021/09/26 08:35:42;;;;;;;7.50;6.43;;;14.50;99.90;;;15.38;100.00;98208.09;5109857;28;20446;-83
2021/09/26 08:38:13;;;;;;;9.90;6.17;;;14.60;99.90;;;15.42;100.00;98219.81;5100068;28;20447;-84
2021/09/26 08:40:41;;;;;;;8.00;6.73;;;14.70;99.90;;;15.46;100.00;98207.84;5109830;28;20798;-84
2021/09/26 08:43:11;;;;;;;7.00;5.77;;;14.70;99.90;;;15.53;100.00;98205.19;5105016;27;20566;-84
2021/09/26 08:45:41;;;;;;;12.87;5.53;;;14.70;99.90;;;15.57;100.00;98215.09;5113463;27;20438;-83
2021/09/26 08:48:11;;;;;;;10.17;6.50;;;14.80;99.90;;;15.63;100.00;98209.97;5091256;28;20467;-84
2021/09/26 08:50:40;;;;;;;8.67;6.00;;;14.80;99.90;;;15.67;100.00;98205.88;5097592;28;20458;-83
2021/09/26 08:53:09;;;;;;;6.23;5.10;;;14.90;99.90;;;15.72;100.00;98200.78;5109510;28;20562;-84
2021/09/26 08:55:40;;;;;;;10.33;5.90;;;14.90;99.90;;;15.76;100.00;98215.16;5101457;28;20516;-84
2021/09/26 08:58:08;;;;;;;7.13;5.57;;;15.00;99.90;;;15.79;100.00;98218.16;5104013;28;20497;-84
2021/09/26 09:00:37;;;;;;;12.17;5.60;;;15.00;99.90;;;15.84;100.00;98217.50;5104131;28;20701;-83
2021/09/26 09:03:12;;;;;;;6.90;6.03;;;15.10;99.90;;;15.87;100.00;98207.34;5084610;28;20986;-83
2021/09/26 09:05:42;;;;;;;7.87;5.33;;;15.10;99.90;;;15.91;100.00;98208.53;5102342;28;20469;-84
2021/09/26 09:08:14;;;;;;;10.17;5.63;;;15.20;99.90;;;15.95;100.00;98199.16;5099975;28;20956;-82
2021/09/26 09:10:49;;;;;;;25.80;20.47;;;15.20;99.90;;;16.00;100.00;98201.16;5098111;27;20458;-83
2021/09/26 09:13:20;;;;;;;32.53;17.07;;;15.20;99.90;;;16.07;100.00;98202.66;5099469;28;21106;-83
2021/09/26 09:15:55;;;;;;;13.23;7.90;;;15.30;99.90;;;16.13;100.00;98211.56;5082458;28;20466;-83
2021/09/26 09:18:26;;;;;;;9.13;5.97;;;15.40;99.90;;;16.19;100.00;98210.69;5098799;28;20556;-83
2021/09/26 09:20:56;;;;;;;9.13;6.30;;;15.40;99.90;;;16.25;100.00;98220.38;5097363;28;20467;-83
2021/09/26 09:23:25;;;;;;;9.97;6.70;;;15.50;99.90;;;16.33;100.00;98228.00;5108753;27;20931;-83
2021/09/26 09:25:57;;;;;;;13.50;8.43;;;15.60;99.90;;;16.43;100.00;98238.84;5102854;27;20878;-83
2021/09/26 09:28:30;;;;;;;13.50;7.83;;;15.80;99.90;;;16.50;100.00;98231.69;5103295;28;20462;-83
2021/09/26 09:31:04;;;;;;;9.73;7.30;;;16.00;99.90;;;16.57;100.00;98221.06;5101243;28;20455;-83
2021/09/26 09:33:39;;;;;;;8.90;6.73;;;16.00;99.90;;;16.62;100.00;98233.63;5098895;28;20501;-84
2021/09/26 09:36:20;;;;;;;10.13;6.60;;;16.10;99.90;;;16.69;100.00;98242.28;5106729;28;20446;-83
2021/09/26 09:38:51;;;;;;;9.50;6.97;;;16.10;99.90;;;16.73;100.00;98254.78;5107092;28;20576;-83
2021/09/26 09:41:40;;;;;;;12.03;7.10;;;16.20;99.90;;;16.80;100.00;98254.75;5081730;28;20508;-83
2021/09/26 09:44:12;;;;;;;12.27;7.17;;;16.30;99.90;;;16.85;100.00;98257.50;5102528;28;20866;-84
2021/09/26 09:46:45;;;;;;;10.57;6.80;;;16.30;99.90;;;16.89;100.00;98261.31;5083329;28;20456;-83
2021/09/26 09:49:17;;;;;;;10.10;6.87;;;16.30;99.90;;;16.92;100.00;98274.09;5080168;28;20573;-83
2021/09/26 09:51:52;;;;;;;13.23;7.00;;;16.30;99.90;;;16.94;100.00;98282.59;5100120;28;20466;-84
2021/09/26 09:54:32;;;;;;;15.67;6.83;;;16.30;99.90;;;16.97;100.00;98284.81;5102022;27;20502;-84
2021/09/26 09:57:13;;;;;;;11.50;7.40;;;16.40;99.90;;;16.99;100.00;98295.97;5107152;28;21025;-83
2021/09/26 09:59:44;;;;;;;12.27;8.07;;;16.50;99.90;;;16.99;100.00;98295.97;5098790;28;20888;-84
2021/09/26 10:02:14;;;;;;;29.70;8.00;;;16.40;99.90;;;17.00;100.00;98293.09;5103854;28;20438;-84
2021/09/26 10:04:46;;;;;;;10.83;8.10;;;16.50;99.90;;;17.02;100.00;98290.22;5100952;27;20537;-83
2021/09/26 10:07:22;;;;;;;16.17;8.57;;;16.40;99.90;;;17.04;100.00;98288.97;5105153;28;20530;-83
2021/09/26 10:09:53;;;;;;;12.80;8.73;;;16.40;99.90;;;17.05;100.00;98276.56;5099604;28;20546;-83
2021/09/26 10:12:26;;;;;;;11.87;8.63;;;16.40;99.90;;;17.07;100.00;98275.34;5094114;28;20514;-83
2021/09/26 10:14:58;;;;;;;9.73;7.20;;;16.40;99.90;;;17.10;100.00;98274.06;5099850;28;20457;-83
2021/09/26 10:17:29;;;;;;;15.03;8.23;;;16.40;99.90;;;17.10;100.00;98271.44;5097027;28;20467;-83
2021/09/26 10:19:58;;;;;;;19.33;8.10;;;16.40;99.90;;;17.09;100.00;98281.19;5101121;28;20494;-83
2021/09/26 10:22:27;;;;;;;10.57;7.10;;;16.40;99.90;;;17.09;100.00;98278.56;5097070;28;20462;-83
2021/09/26 10:24:58;;;;;;;10.43;7.93;;;16.30;99.90;;;17.10;100.00;98290.75;5098731;28;20552;-83